Time;durP1;ratioP1;P1;durP2;ratioP2;P2;SDS_P1;SDS_P2;PMS_P1;PMS_P2;Temp;Humidity;BMP_temperature;BMP_pressure;BME280_temperature;BME280_humidity;BME280_pressure;Samples;Min_cycle;Max_cycle;Signal;HPM_P1;HPM_P2
2023/08/27 00:00:28;;;;;;;0.30;0.30;;;;;;;23.28;60.04;96242.69;10421849;28;20514;-30
2023/08/27 00:05:28;;;;;;;0.45;0.32;;;;;;;23.27;59.82;96242.72;10437236;28;20415;-30
2023/08/27 00:10:29;;;;;;;0.20;0.20;;;;;;;23.26;60.22;96244.44;10432334;28;20064;-30
2023/08/27 00:15:29;;;;;;;0.53;0.37;;;;;;;23.26;60.02;96236.78;10447280;28;20087;-30
2023/08/27 00:20:33;;;;;;;0.30;0.30;;;;;;;23.27;60.22;96228.25;10419469;28;20395;-29
2023/08/27 00:25:33;;;;;;;0.30;0.30;;;;;;;23.25;60.12;96201.06;10447390;28;20291;-30
2023/08/27 00:30:33;;;;;;;0.77;0.35;;;;;;;23.25;60.04;96189.09;10421320;28;20044;-30
2023/08/27 00:35:36;;;;;;;0.30;0.30;;;;;;;23.25;60.24;96186.53;10437471;28;20488;-29
2023/08/27 00:40:36;;;;;;;0.32;0.32;;;;;;;23.26;59.99;96161.84;10442552;28;20483;-29
2023/08/27 00:45:38;;;;;;;0.32;0.32;;;;;;;23.25;60.31;96150.78;10451045;28;20033;-29
2023/08/27 00:50:39;;;;;;;0.40;0.40;;;;;;;23.25;60.05;96124.44;10437309;28;20037;-29
2023/08/27 00:55:39;;;;;;;0.30;0.30;;;;;;;23.25;60.10;96139.75;10435010;28;20530;-29
2023/08/27 01:00:40;;;;;;;0.90;0.47;;;;;;;23.24;60.14;96164.44;10445715;28;20032;-30
2023/08/27 01:05:41;;;;;;;0.30;0.30;;;;;;;23.28;60.27;96190.75;10436962;28;20033;-29
2023/08/27 01:11:07;;;;;;;0.40;0.40;;;;;;;23.27;59.88;96202.69;10451183;28;20114;-29
2023/08/27 01:16:10;;;;;;;1.13;0.50;;;;;;;23.26;60.17;96198.47;10421465;28;20040;-29
2023/08/27 01:21:18;;;;;;;0.30;0.30;;;;;;;23.25;60.18;96163.56;10423318;28;20454;-29
2023/08/27 01:26:31;;;;;;;0.88;0.30;;;;;;;23.16;60.11;96158.69;10442116;28;20040;-30
2023/08/27 01:31:38;;;;;;;0.30;0.30;;;;;;;23.24;60.13;96150.84;10443128;28;20396;-29
2023/08/27 01:36:39;;;;;;;0.40;0.30;;;;;;;23.19;59.94;96139.91;10439926;28;20458;-29
2023/08/27 01:41:39;;;;;;;0.30;0.30;;;;;;;23.24;60.23;96133.78;10440471;28;20059;-29
2023/08/27 01:46:40;;;;;;;0.43;0.43;;;;;;;23.25;60.15;96191.66;10451788;28;20125;-29
2023/08/27 01:51:40;;;;;;;0.20;0.20;;;;;;;23.24;60.10;96179.75;10443570;28;20686;-29
2023/08/27 01:56:41;;;;;;;0.20;0.20;;;;;;;23.23;60.02;96160.22;10435657;28;20434;-30
2023/08/27 02:01:43;;;;;;;0.40;0.40;;;;;;;23.22;60.12;96158.53;10427858;28;20032;-30
2023/08/27 02:06:46;;;;;;;0.30;0.30;;;;;;;23.22;60.06;96150.88;10434350;28;20529;-30
2023/08/27 02:11:46;;;;;;;0.20;0.20;;;;;;;23.21;60.11;96154.31;10415030;28;20506;-29
2023/08/27 02:16:46;;;;;;;0.20;0.20;;;;;;;23.22;60.21;96124.53;10431085;28;20033;-29
2023/08/27 02:21:47;;;;;;;0.30;0.30;;;;;;;23.21;60.20;96108.34;10435506;28;20055;-29
2023/08/27 02:26:49;;;;;;;0.55;0.40;;;;;;;23.22;60.08;96116.84;10430261;28;20163;-29
2023/08/27 02:31:51;;;;;;;0.30;0.30;;;;;;;23.22;60.17;96135.56;10424424;28;20029;-30
2023/08/27 02:36:51;;;;;;;0.50;0.45;;;;;;;23.22;60.12;96127.91;10419712;28;20495;-30
2023/08/27 02:41:52;;;;;;;0.37;0.37;;;;;;;23.24;60.04;96144.00;10442158;28;20150;-30
2023/08/27 02:46:52;;;;;;;0.93;0.30;;;;;;;23.24;60.12;96154.22;10426700;28;20296;-29
2023/08/27 02:51:54;;;;;;;0.50;0.50;;;;;;;23.24;60.09;96172.09;10420793;28;20037;-29
2023/08/27 02:56:55;;;;;;;0.50;0.50;;;;;;;23.25;60.13;96181.44;10417589;28;20407;-29
2023/08/27 03:01:55;;;;;;;0.43;0.40;;;;;;;23.21;60.04;96108.34;10423676;28;20410;-30
2023/08/27 03:06:56;;;;;;;0.55;0.40;;;;;;;23.21;60.15;96059.81;10448465;28;20033;-30
2023/08/27 03:11:56;;;;;;;0.60;0.23;;;;;;;23.19;60.11;96042.84;10426466;28;20521;-30
2023/08/27 03:16:56;;;;;;;0.30;0.30;;;;;;;23.20;60.35;96035.16;10423784;28;20029;-30
2023/08/27 03:21:57;;;;;;;0.30;0.30;;;;;;;23.22;59.96;96073.44;10434039;28;21098;-30
2023/08/27 03:26:57;;;;;;;0.40;0.40;;;;;;;23.24;60.23;96122.75;10429213;28;20305;-30
2023/08/27 03:31:58;;;;;;;0.20;0.20;;;;;;;23.25;60.08;96129.53;10441019;28;20513;-29
2023/08/27 03:36:58;;;;;;;0.30;0.30;;;;;;;23.20;60.05;96087.94;10424121;28;20140;-29
2023/08/27 03:41:59;;;;;;;0.30;0.30;;;;;;;23.15;60.07;96082.97;10450588;28;20125;-29
2023/08/27 03:46:59;;;;;;;1.13;0.30;;;;;;;23.21;60.16;96099.84;10440801;28;20110;-29
2023/08/27 03:52:00;;;;;;;0.17;0.17;;;;;;;23.20;60.31;96070.91;10441944;28;20037;-30
2023/08/27 03:57:00;;;;;;;0.20;0.20;;;;;;;23.21;60.07;96066.63;10442066;28;20033;-29
2023/08/27 04:02:00;;;;;;;0.40;0.30;;;;;;;23.20;60.16;96078.59;10435477;28;20040;-29
2023/08/27 04:07:01;;;;;;;0.87;0.30;;;;;;;23.20;59.81;96070.06;10439522;28;20037;-29
2023/08/27 04:12:03;;;;;;;0.20;0.20;;;;;;;23.18;60.13;96072.69;10432790;28;20290;-29
2023/08/27 04:17:03;;;;;;;0.30;0.30;;;;;;;23.19;59.91;96084.56;10444519;28;20024;-30
2023/08/27 04:22:05;;;;;;;0.30;0.30;;;;;;;23.19;60.01;96089.69;10435544;28;20112;-30
2023/08/27 04:27:05;;;;;;;0.20;0.20;;;;;;;23.19;60.07;96107.56;10419590;28;20399;-28
2023/08/27 04:32:05;;;;;;;0.30;0.30;;;;;;;23.19;60.02;96122.88;10441126;28;20036;-29
2023/08/27 04:37:06;;;;;;;0.20;0.20;;;;;;;23.20;60.11;96122.00;10433153;28;20029;-30
2023/08/27 04:42:06;;;;;;;0.27;0.27;;;;;;;23.19;60.13;96107.56;10438890;28;20052;-30
2023/08/27 04:47:07;;;;;;;0.20;0.20;;;;;;;23.18;59.97;96098.22;10434206;28;20036;-29
2023/08/27 04:52:07;;;;;;;0.22;0.22;;;;;;;23.17;60.13;96091.41;10433193;28;20297;-30
2023/08/27 04:57:08;;;;;;;0.40;0.40;;;;;;;23.18;60.14;96095.66;10436491;28;20082;-29
2023/08/27 05:02:10;;;;;;;0.85;0.30;;;;;;;23.19;60.01;96102.44;10417718;28;20040;-29
2023/08/27 05:07:11;;;;;;;0.40;0.30;;;;;;;23.19;60.14;96115.22;10430130;28;20036;-29
2023/08/27 05:12:12;;;;;;;0.38;0.38;;;;;;;23.18;60.03;96105.88;10443304;28;20037;-30
2023/08/27 05:17:13;;;;;;;0.30;0.30;;;;;;;23.18;60.07;96099.94;10430364;28;20036;-30
2023/08/27 05:22:13;;;;;;;0.40;0.30;;;;;;;23.17;60.31;96096.53;10427212;28;20033;-30
2023/08/27 05:27:13;;;;;;;0.10;0.10;;;;;;;23.17;60.05;96096.53;10434840;28;20041;-30
2023/08/27 05:32:14;;;;;;;0.20;0.20;;;;;;;23.17;60.08;96096.53;10433304;28;20395;-30
2023/08/27 05:37:15;;;;;;;0.52;0.40;;;;;;;23.17;59.96;96091.41;10426568;28;20032;-30
2023/08/27 05:42:15;;;;;;;0.20;0.20;;;;;;;23.16;60.03;96092.31;10428766;28;20036;-30
2023/08/27 05:47:17;;;;;;;0.30;0.30;;;;;;;23.17;60.05;96088.88;10425917;28;20055;-30
2023/08/27 05:52:17;;;;;;;0.20;0.20;;;;;;;23.16;60.03;96089.75;10431294;28;20439;-29
2023/08/27 05:57:18;;;;;;;0.30;0.20;;;;;;;23.15;60.06;96077.84;10420223;28;20029;-30
2023/08/27 06:02:18;;;;;;;0.22;0.22;;;;;;;23.17;60.02;96096.53;10424709;28;20032;-30
2023/08/27 06:07:19;;;;;;;0.30;0.20;;;;;;;23.15;60.11;96072.75;10433535;28;20032;-30
2023/08/27 06:12:19;;;;;;;0.20;0.20;;;;;;;23.12;60.01;96082.19;10427731;28;20080;-29
2023/08/27 06:17:20;;;;;;;0.30;0.30;;;;;;;23.17;60.16;96093.16;10444618;28;20021;-30
2023/08/27 06:22:21;;;;;;;0.20;0.20;;;;;;;23.15;59.97;96085.53;10418800;28;20028;-29
2023/08/27 06:27:21;;;;;;;0.40;0.20;;;;;;;23.17;60.05;96077.81;10439338;28;20110;-30
2023/08/27 06:32:22;;;;;;;0.63;0.30;;;;;;;23.16;60.08;96083.81;10429507;28;20035;-29
2023/08/27 06:37:22;;;;;;;0.30;0.30;;;;;;;23.14;60.06;96063.41;10426728;28;20029;-29
2023/08/27 06:42:23;;;;;;;0.63;0.20;;;;;;;23.15;59.85;96054.06;10419083;28;20104;-30
2023/08/27 06:47:25;;;;;;;0.20;0.20;;;;;;;23.15;60.14;96054.06;10416404;28;20029;-30
2023/08/27 06:52:26;;;;;;;0.37;0.37;;;;;;;23.16;59.99;96060.84;10437203;28;20427;-30
2023/08/27 06:57:28;;;;;;;0.20;0.20;;;;;;;23.15;59.82;96067.66;10436510;28;20021;-29
2023/08/27 07:02:28;;;;;;;0.30;0.30;;;;;;;23.15;59.96;96077.84;10430878;28;20034;-30
2023/08/27 07:07:30;;;;;;;0.50;0.40;;;;;;;23.16;60.08;96086.38;10436925;28;20085;-29
2023/08/27 07:12:33;;;;;;;0.40;0.40;;;;;;;23.15;59.89;96100.84;10432630;28;20335;-30
2023/08/27 07:17:34;;;;;;;0.40;0.40;;;;;;;23.16;60.05;96114.47;10456637;28;20499;-29
2023/08/27 07:22:34;;;;;;;0.30;0.30;;;;;;;23.15;60.02;96113.63;10439987;28;20111;-29
2023/08/27 07:27:35;;;;;;;0.20;0.20;;;;;;;23.15;60.39;96113.63;10436311;28;20497;-29
2023/08/27 07:32:38;;;;;;;0.20;0.20;;;;;;;23.12;59.91;96118.78;10431894;28;20037;-30
2023/08/27 07:37:40;;;;;;;0.20;0.20;;;;;;;23.13;60.13;96127.25;10439119;28;20025;-29
2023/08/27 07:42:42;;;;;;;0.30;0.30;;;;;;;23.13;60.00;96128.13;10422588;28;20033;-30
2023/08/27 07:47:42;;;;;;;0.30;0.30;;;;;;;23.12;60.02;96129.00;10443424;28;20029;-29
2023/08/27 07:52:43;;;;;;;0.25;0.25;;;;;;;23.13;60.10;96125.56;10456621;28;20384;-29
2023/08/27 07:57:43;;;;;;;0.20;0.20;;;;;;;23.13;59.99;96120.47;10421123;28;20024;-30
2023/08/27 08:02:44;;;;;;;0.50;0.30;;;;;;;23.12;60.09;96123.91;10446563;28;20044;-30
2023/08/27 08:07:44;;;;;;;0.20;0.20;;;;;;;23.13;60.12;96125.56;10422774;28;20044;-30
2023/08/27 08:12:44;;;;;;;0.30;0.30;;;;;;;23.14;60.13;96131.53;10430055;28;20029;-30
2023/08/27 08:17:45;;;;;;;0.30;0.30;;;;;;;23.14;59.99;96145.16;10444949;28;20499;-29
2023/08/27 08:22:48;;;;;;;0.20;0.20;;;;;;;23.13;60.31;96145.16;10436937;28;20334;-29
2023/08/27 08:27:48;;;;;;;0.50;0.30;;;;;;;23.13;60.32;96151.09;10421076;28;20067;-30
2023/08/27 08:32:48;;;;;;;0.22;0.20;;;;;;;23.13;60.07;96153.66;10430261;28;20030;-30
2023/08/27 08:37:49;;;;;;;0.93;0.30;;;;;;;23.12;60.35;96163.91;10427376;28;20037;-29
2023/08/27 08:42:57;;;;;;;0.53;0.30;;;;;;;23.10;59.86;96161.41;10443754;28;20403;-29
2023/08/27 08:48:01;;;;;;;0.20;0.20;;;;;;;23.13;60.11;96145.16;10440517;28;20075;-28
2023/08/27 08:53:14;;;;;;;0.45;0.20;;;;;;;23.11;60.09;96112.00;10447163;28;20052;-29
2023/08/27 08:58:16;;;;;;;0.20;0.20;;;;;;;23.12;59.97;96107.72;10427539;28;20033;-30
2023/08/27 09:03:17;;;;;;;0.22;0.22;;;;;;;23.11;60.01;96099.25;10435438;28;20468;-29
2023/08/27 09:08:19;;;;;;;0.32;0.20;;;;;;;23.12;60.11;96113.69;10446173;28;20047;-30
2023/08/27 09:13:20;;;;;;;0.20;0.20;;;;;;;23.12;60.06;96123.91;10428379;28;20072;-30
2023/08/27 09:18:21;;;;;;;0.30;0.30;;;;;;;23.11;60.02;96135.00;10436787;28;20180;-29
2023/08/27 09:23:22;;;;;;;0.20;0.20;;;;;;;23.13;60.01;96140.03;10440274;28;20036;-29
2023/08/27 09:28:23;;;;;;;0.25;0.22;;;;;;;23.12;60.17;96141.78;10433125;28;20042;-30
2023/08/27 09:33:37;;;;;;;0.30;0.20;;;;;;;23.06;59.97;96126.59;10437371;28;20033;-30
2023/08/27 09:38:39;;;;;;;0.40;0.40;;;;;;;23.12;59.94;96123.91;10421219;28;20060;-30
2023/08/27 09:43:46;;;;;;;0.20;0.20;;;;;;;23.12;59.92;96131.56;10429936;28;20119;-30
2023/08/27 09:49:01;;;;;;;0.43;0.40;;;;;;;23.12;60.01;96134.09;10428515;28;20029;-30
2023/08/27 09:54:15;;;;;;;0.85;0.40;;;;;;;23.11;59.96;96142.66;10426395;28;20036;-30
2023/08/27 09:59:18;;;;;;;0.20;0.20;;;;;;;23.12;60.01;96143.47;10443760;28;20048;-30
2023/08/27 10:04:20;;;;;;;0.30;0.30;;;;;;;23.07;60.09;96127.47;10420585;28;20053;-30
2023/08/27 10:09:21;;;;;;;0.20;0.20;;;;;;;23.12;60.14;96138.38;10441364;28;20037;-30
2023/08/27 10:14:22;;;;;;;0.30;0.30;;;;;;;23.11;60.12;96132.44;10435217;28;20033;-30
2023/08/27 10:19:24;;;;;;;0.20;0.20;;;;;;;23.11;59.91;96132.44;10429020;28;20032;-30
2023/08/27 10:24:25;;;;;;;0.28;0.28;;;;;;;23.12;60.05;96134.09;10434218;28;20045;-30
2023/08/27 10:29:26;;;;;;;0.30;0.28;;;;;;;23.12;60.12;96134.09;10430264;28;20033;-29
2023/08/27 10:34:28;;;;;;;0.32;0.28;;;;;;;23.11;60.22;96134.13;10429389;28;20028;-30
2023/08/27 10:39:31;;;;;;;0.52;0.40;;;;;;;23.11;60.00;96127.34;10433915;28;20036;-29
2023/08/27 10:44:32;;;;;;;0.40;0.30;;;;;;;23.11;60.05;96132.44;10421878;28;20084;-29
2023/08/27 10:49:39;;;;;;;0.20;0.20;;;;;;;23.10;60.02;96119.69;10426042;28;20064;-30
2023/08/27 10:54:39;;;;;;;0.20;0.20;;;;;;;23.10;60.14;96119.69;10414841;28;20506;-30
2023/08/27 10:59:41;;;;;;;0.90;0.40;;;;;;;23.10;60.18;96119.69;10450073;28;20049;-29
2023/08/27 11:04:43;;;;;;;0.30;0.30;;;;;;;23.08;60.02;96121.47;10416873;28;20064;-30
2023/08/27 11:09:55;;;;;;;0.17;0.17;;;;;;;23.09;60.02;96118.88;10433743;28;20067;-29
2023/08/27 11:15:09;;;;;;;0.30;0.20;;;;;;;23.12;61.53;96134.09;10416078;28;20075;-29
2023/08/27 11:20:23;;;;;;;6.30;1.58;;;;;;;23.15;61.95;96136.59;10414873;28;20068;-29
2023/08/27 11:25:31;;;;;;;34.60;3.65;;;;;;;22.81;61.34;96133.25;10409821;28;20033;-28
2023/08/27 11:30:31;;;;;;;3.65;1.50;;;;;;;22.96;62.11;96117.53;10414319;28;20447;-30
2023/08/27 11:35:32;;;;;;;4.13;1.30;;;;;;;22.83;59.49;96105.97;10438873;28;20087;-30
2023/08/27 11:40:32;;;;;;;3.07;1.40;;;;;;;22.88;60.92;96114.34;10408264;28;20037;-32
2023/08/27 11:45:37;;;;;;;4.30;1.67;;;;;;;22.74;59.58;96120.69;10433001;28;20041;-31
2023/08/27 11:50:42;;;;;;;5.13;1.63;;;;;;;22.52;61.07;96107.66;10408680;28;20288;-30
2023/08/27 11:55:43;;;;;;;4.20;1.70;;;;;;;22.76;59.17;96104.47;10407307;28;20047;-31
2023/08/27 12:00:48;;;;;;;3.33;1.30;;;;;;;22.84;59.92;96096.59;10423188;28;20479;-30
2023/08/27 12:05:49;;;;;;;16.57;2.80;;;;;;;22.83;59.25;96103.41;10423491;28;20030;-31
2023/08/27 12:10:50;;;;;;;3.60;1.60;;;;;;;22.85;58.84;96099.13;10432808;28;20029;-28
2023/08/27 12:15:53;;;;;;;5.22;1.50;;;;;;;22.93;58.23;96112.50;10419080;28;20034;-29
2023/08/27 12:20:53;;;;;;;7.30;1.60;;;;;;;22.98;57.46;96118.31;10430454;28;20471;-28
2023/08/27 12:25:56;;;;;;;8.18;2.17;;;;;;;22.95;57.33;96131.19;10424968;28;20060;-29
2023/08/27 12:30:58;;;;;;;7.88;1.63;;;;;;;22.98;56.15;96125.97;10435797;28;20995;-28
2023/08/27 12:36:03;;;;;;;2.88;1.30;;;;;;;23.00;55.93;96118.28;10429201;28;20055;-27
2023/08/27 12:41:04;;;;;;;4.10;1.30;;;;;;;23.00;56.06;96129.31;10411993;28;20048;-29
2023/08/27 12:46:06;;;;;;;2.33;1.33;;;;;;;22.99;56.22;96144.69;10412178;28;20526;-29
2023/08/27 12:51:06;;;;;;;4.15;1.30;;;;;;;22.98;56.42;96125.97;10408819;28;20415;-28
2023/08/27 12:56:07;;;;;;;1.97;1.40;;;;;;;22.88;56.90;96108.38;10412027;28;20043;-27
2023/08/27 13:01:07;;;;;;;4.10;1.38;;;;;;;22.94;56.61;96121.84;10409057;28;20050;-28
2023/08/27 13:06:08;;;;;;;4.60;1.50;;;;;;;22.93;57.29;96115.06;10410784;28;20055;-29
2023/08/27 13:11:08;;;;;;;3.87;1.00;;;;;;;22.99;57.45;96122.53;10412901;28;20128;-27
2023/08/27 13:16:08;;;;;;;2.90;1.20;;;;;;;22.87;58.00;96139.91;10411978;28;20030;-28
2023/08/27 13:21:11;;;;;;;1.40;1.02;;;;;;;22.96;58.16;96143.06;10422786;28;20044;-29
2023/08/27 13:26:13;;;;;;;3.13;1.35;;;;;;;22.96;57.38;96155.81;10401147;28;20041;-29
2023/08/27 13:31:13;;;;;;;3.47;1.60;;;;;;;22.87;58.23;96148.41;10407675;28;20061;-29
2023/08/27 13:36:14;;;;;;;1.90;1.13;;;;;;;22.94;58.55;96129.50;10394223;28;20025;-29
2023/08/27 13:41:14;;;;;;;3.88;1.77;;;;;;;22.80;59.45;96136.69;10392173;28;20116;-29
2023/08/27 13:46:14;;;;;;;2.50;1.50;;;;;;;22.82;59.32;96147.69;10396742;28;20033;-29
2023/08/27 13:51:15;;;;;;;7.00;3.60;;;;;;;22.85;59.51;96160.38;10398736;28;20566;-30
2023/08/27 13:56:15;;;;;;;5.87;3.07;;;;;;;22.82;60.12;96188.53;10396758;28;20280;-30
2023/08/27 14:01:16;;;;;;;3.67;2.40;;;;;;;22.79;59.90;96192.84;10393180;28;20296;-31
2023/08/27 14:06:16;;;;;;;2.13;1.40;;;;;;;22.82;59.88;96233.66;10405016;28;20782;-31
2023/08/27 14:11:16;;;;;;;2.42;1.15;;;;;;;22.86;60.12;96248.84;10392406;28;20530;-30
2023/08/27 14:16:17;;;;;;;3.40;1.40;;;;;;;22.82;60.13;96261.72;10392015;28;20045;-30
2023/08/27 14:21:17;;;;;;;4.93;1.93;;;;;;;22.68;60.13;96264.59;10404166;28;20033;-28
2023/08/27 14:26:17;;;;;;;4.37;1.23;;;;;;;22.67;60.43;96273.16;10393471;28;20045;-28
2023/08/27 14:31:18;;;;;;;3.67;1.40;;;;;;;22.69;61.24;96253.53;10393996;28;20721;-28
2023/08/27 14:36:18;;;;;;;2.37;1.17;;;;;;;22.55;60.31;96265.75;10393212;28;20041;-29
2023/08/27 14:41:19;;;;;;;8.27;1.20;;;;;;;22.57;60.02;96266.56;10396409;28;20045;-29
2023/08/27 14:46:20;;;;;;;2.83;1.73;;;;;;;22.76;61.13;96251.66;10388826;28;20037;-29
2023/08/27 14:51:20;;;;;;;5.40;1.30;;;;;;;22.79;61.16;96232.00;10387413;28;20040;-29
2023/08/27 14:56:21;;;;;;;1.58;1.05;;;;;;;22.85;61.16;96234.41;10379003;28;20045;-28
2023/08/27 15:01:22;;;;;;;3.05;1.20;;;;;;;22.59;61.64;96216.34;10392660;28;20554;-28
2023/08/27 15:06:23;;;;;;;1.92;1.35;;;;;;;22.76;61.32;96221.88;10406541;28;20035;-28
2023/08/27 15:11:23;;;;;;;6.33;1.27;;;;;;;22.93;61.11;96229.94;10394050;28;20049;-28
2023/08/27 15:16:23;;;;;;;6.20;0.80;;;;;;;22.95;60.89;96223.09;10395611;28;20037;-28
2023/08/27 15:21:24;;;;;;;3.40;1.40;;;;;;;23.01;60.68;96237.41;10405166;28;20049;-28
2023/08/27 15:26:24;;;;;;;1.80;1.00;;;;;;;23.04;60.83;96224.56;10399675;28;20037;-28
2023/08/27 15:31:25;;;;;;;2.63;0.93;;;;;;;23.06;60.85;96236.41;10408383;28;20048;-28
2023/08/27 15:36:25;;;;;;;2.20;0.90;;;;;;;23.09;60.82;96236.34;10395961;28;20057;-28
2023/08/27 15:41:28;;;;;;;1.77;0.87;;;;;;;23.09;61.09;96256.78;10389834;28;20037;-29
2023/08/27 15:46:29;;;;;;;1.92;0.80;;;;;;;23.11;60.94;96264.38;10387869;28;20694;-29
2023/08/27 15:51:30;;;;;;;1.00;0.70;;;;;;;23.10;61.11;96252.50;10394879;28;20041;-29
2023/08/27 15:56:30;;;;;;;6.60;1.00;;;;;;;23.15;61.14;96246.41;10401193;28;20029;-29
2023/08/27 16:01:30;;;;;;;2.80;1.03;;;;;;;23.14;61.15;96249.84;10396872;28;20033;-31
2023/08/27 16:06:31;;;;;;;3.53;1.20;;;;;;;23.10;61.47;96253.34;10396450;28;20025;-29
2023/08/27 16:11:31;;;;;;;5.43;1.53;;;;;;;23.02;62.22;96251.84;10393971;28;20041;-29
2023/08/27 16:16:32;;;;;;;11.10;2.53;;;;;;;23.06;61.48;96267.06;10401120;28;20079;-29
2023/08/27 16:21:34;;;;;;;6.95;2.90;;;;;;;23.04;61.41;96258.59;10410246;28;20391;-29
2023/08/27 16:26:34;;;;;;;5.90;2.10;;;;;;;23.04;61.38;96258.59;10417972;28;20121;-29
2023/08/27 16:31:35;;;;;;;7.03;2.43;;;;;;;23.04;61.54;96256.03;10408966;28;20033;-29
2023/08/27 16:36:35;;;;;;;6.37;2.33;;;;;;;23.04;61.45;96250.94;10410470;28;20284;-29
2023/08/27 16:41:35;;;;;;;5.97;2.77;;;;;;;23.05;61.58;96260.28;10417302;28;20044;-29
2023/08/27 16:46:36;;;;;;;7.20;2.30;;;;;;;23.05;61.64;96256.88;10409094;28;20038;-29
2023/08/27 16:51:36;;;;;;;5.47;2.57;;;;;;;23.05;61.54;96267.94;10405893;28;20037;-30
2023/08/27 16:56:36;;;;;;;7.33;2.43;;;;;;;23.03;61.48;96259.47;10415279;28;20055;-29
2023/08/27 17:01:37;;;;;;;4.97;2.43;;;;;;;23.05;61.68;96269.63;10422264;28;20531;-29
2023/08/27 17:06:37;;;;;;;6.57;2.20;;;;;;;23.06;61.93;96251.72;10403861;28;20063;-29
2023/08/27 17:11:38;;;;;;;8.40;2.65;;;;;;;23.03;62.66;96241.59;10403814;28;20048;-30
2023/08/27 17:16:42;;;;;;;5.35;1.85;;;;;;;23.08;62.17;96254.25;10400948;28;20033;-29
2023/08/27 17:21:42;;;;;;;6.40;1.90;;;;;;;23.09;62.28;96256.78;10402325;28;20593;-29
2023/08/27 17:26:42;;;;;;;5.23;1.90;;;;;;;23.08;61.91;96254.25;10404497;28;20045;-29
2023/08/27 17:31:43;;;;;;;5.40;2.00;;;;;;;23.08;62.00;96260.19;10407865;28;20029;-29
2023/08/27 17:36:43;;;;;;;5.30;1.90;;;;;;;23.07;61.93;96250.84;10405365;28;20522;-29
2023/08/27 17:41:51;;;;;;;5.20;1.43;;;;;;;23.03;61.75;96256.94;10395729;28;20044;-29
2023/08/27 17:46:51;;;;;;;7.10;1.75;;;;;;;22.98;61.90;96261.28;10387417;28;20036;-29
2023/08/27 17:51:52;;;;;;;4.50;1.37;;;;;;;22.78;61.13;96271.16;10420926;28;20571;-29
2023/08/27 17:56:55;;;;;;;2.37;1.37;;;;;;;22.75;61.10;96288.25;10410774;28;20291;-30
2023/08/27 18:01:55;;;;;;;6.55;1.55;;;;;;;22.81;61.20;96275.38;10402244;28;20141;-30
2023/08/27 18:06:55;;;;;;;5.37;2.50;;;;;;;22.87;61.90;96280.31;10387129;28;20037;-29
2023/08/27 18:11:56;;;;;;;2.83;1.33;;;;;;;22.99;61.07;96291.06;10403290;28;20906;-29
2023/08/27 18:16:56;;;;;;;9.60;1.70;;;;;;;23.01;61.02;96299.53;10396144;28;20026;-29
2023/08/27 18:21:56;;;;;;;2.80;1.30;;;;;;;22.87;60.84;96313.50;10410346;28;20033;-29
2023/08/27 18:26:58;;;;;;;2.63;1.40;;;;;;;22.58;60.21;96324.34;10398979;28;20061;-30
2023/08/27 18:31:58;;;;;;;2.55;1.08;;;;;;;22.41;60.26;96336.66;10401439;28;20029;-29
2023/08/27 18:36:59;;;;;;;2.30;1.23;;;;;;;22.36;60.12;96335.91;10398668;28;20041;-29
2023/08/27 18:41:59;;;;;;;2.67;1.20;;;;;;;22.29;60.02;96342.00;10403735;28;20040;-29
2023/08/27 18:47:00;;;;;;;3.57;1.30;;;;;;;22.21;59.88;96338.75;10407812;28;20049;-28
2023/08/27 18:52:00;;;;;;;4.00;1.03;;;;;;;22.20;59.90;96338.78;10414665;28;20182;-29
2023/08/27 18:57:01;;;;;;;3.53;1.63;;;;;;;22.20;59.82;96354.06;10423228;28;20488;-29
2023/08/27 19:02:03;;;;;;;1.52;0.80;;;;;;;22.18;59.49;96371.97;10413602;28;20044;-29
2023/08/27 19:07:04;;;;;;;2.72;1.00;;;;;;;22.55;59.67;96378.03;10410704;28;20282;-29
2023/08/27 19:12:04;;;;;;;6.97;1.40;;;;;;;22.57;60.03;96381.38;10413274;28;20041;-29
2023/08/27 19:17:05;;;;;;;6.25;1.42;;;;;;;22.70;59.24;96395.56;10412022;28;20373;-29
2023/08/27 19:22:05;;;;;;;2.67;1.00;;;;;;;22.76;59.44;96389.47;10411962;28;20029;-29
2023/08/27 19:27:06;;;;;;;2.10;0.97;;;;;;;22.75;59.19;96403.94;10409205;28;20045;-29
2023/08/27 19:32:06;;;;;;;1.87;1.20;;;;;;;22.76;59.07;96404.78;10402755;28;20311;-29
2023/08/27 19:37:06;;;;;;;1.50;1.20;;;;;;;22.72;58.99;96411.69;10407966;28;20061;-29
2023/08/27 19:42:07;;;;;;;1.90;1.30;;;;;;;22.77;58.98;96417.53;10417404;28;20041;-29
2023/08/27 19:47:07;;;;;;;3.77;1.70;;;;;;;22.80;58.73;96412.34;10407683;28;20049;-28
2023/08/27 19:52:08;;;;;;;3.50;1.30;;;;;;;22.77;58.85;96414.97;10412499;28;20095;-29
2023/08/27 19:57:08;;;;;;;1.73;1.20;;;;;;;22.80;58.74;96419.16;10413799;28;20284;-29
2023/08/27 20:02:08;;;;;;;2.60;1.50;;;;;;;22.79;58.72;96415.78;10412720;28;20753;-29
2023/08/27 20:07:09;;;;;;;3.67;1.40;;;;;;;22.79;58.76;96410.69;10405335;28;20443;-30
2023/08/27 20:12:09;;;;;;;1.63;1.10;;;;;;;22.77;58.56;96404.78;10417220;28;20483;-29
2023/08/27 20:17:09;;;;;;;3.03;1.03;;;;;;;22.76;58.72;96400.53;10406658;28;20566;-29
2023/08/27 20:22:10;;;;;;;3.17;1.33;;;;;;;22.71;58.46;96407.44;10419381;28;20038;-29
2023/08/27 20:27:10;;;;;;;4.00;1.30;;;;;;;22.68;58.88;96399.88;10412332;28;20099;-28
2023/08/27 20:32:10;;;;;;;2.60;1.50;;;;;;;22.72;59.17;96393.81;10405079;28;20170;-29
2023/08/27 20:37:11;;;;;;;2.60;1.30;;;;;;;22.66;59.34;96385.47;10404823;28;20614;-29
2023/08/27 20:42:11;;;;;;;3.73;1.43;;;;;;;22.63;59.52;96394.00;10402124;28;20295;-29
2023/08/27 20:47:12;;;;;;;2.88;1.75;;;;;;;22.62;59.60;96397.44;10409458;28;20298;-29
2023/08/27 20:52:12;;;;;;;2.65;1.60;;;;;;;22.61;59.76;96402.56;10414915;28;20455;-29
2023/08/27 20:57:13;;;;;;;2.00;1.10;;;;;;;22.61;59.85;96403.41;10396438;28;20026;-30
2023/08/27 21:02:16;;;;;;;2.38;1.40;;;;;;;22.70;60.17;96405.78;10410683;28;20083;-30
2023/08/27 21:07:17;;;;;;;3.15;1.23;;;;;;;22.77;60.17;96392.00;10407931;28;20469;-29
2023/08/27 21:12:17;;;;;;;5.13;1.20;;;;;;;22.78;59.97;96398.78;10405569;28;20086;-29
2023/08/27 21:17:17;;;;;;;1.30;0.90;;;;;;;22.80;60.32;96391.94;10424575;28;20042;-29
2023/08/27 21:22:18;;;;;;;3.17;0.90;;;;;;;22.82;60.26;96395.28;10422441;28;20037;-30
2023/08/27 21:27:18;;;;;;;5.20;1.27;;;;;;;22.81;60.23;96396.16;10407969;28;20415;-29
2023/08/27 21:32:22;;;;;;;4.43;0.97;;;;;;;22.81;60.29;96393.59;10414906;28;20059;-29
2023/08/27 21:37:23;;;;;;;2.08;0.85;;;;;;;22.79;60.42;96387.69;10406865;28;20283;-29
2023/08/27 21:42:23;;;;;;;1.50;0.90;;;;;;;22.79;60.50;96379.19;10399728;28;20040;-29
2023/08/27 21:47:23;;;;;;;2.27;1.03;;;;;;;22.79;60.77;96379.19;10397180;28;20030;-29
2023/08/27 21:52:24;;;;;;;2.23;1.03;;;;;;;22.79;60.51;96384.28;10412610;28;20596;-31
2023/08/27 21:57:24;;;;;;;1.43;0.80;;;;;;;22.78;60.58;96380.91;10412529;28;20033;-29
2023/08/27 22:02:24;;;;;;;1.30;0.80;;;;;;;22.78;60.63;96378.38;10414209;28;20048;-29
2023/08/27 22:07:25;;;;;;;3.80;0.80;;;;;;;22.78;60.51;96380.06;10408355;28;20504;-29
2023/08/27 22:12:26;;;;;;;0.80;0.63;;;;;;;22.76;60.45;96385.22;10410342;28;20298;-28
2023/08/27 22:17:27;;;;;;;5.20;2.17;;;;;;;22.77;60.68;96389.47;10403670;28;20557;-29
2023/08/27 22:22:27;;;;;;;1.23;0.70;;;;;;;22.78;60.71;96395.38;10409987;28;20095;-29
2023/08/27 22:27:27;;;;;;;1.13;0.70;;;;;;;22.77;60.73;96406.47;10405242;28;20308;-29
2023/08/27 22:32:28;;;;;;;1.47;0.57;;;;;;;22.76;60.69;96398.00;10401734;28;20042;-29
2023/08/27 22:37:28;;;;;;;1.80;0.70;;;;;;;22.77;60.64;96392.00;10405079;28;20039;-28
2023/08/27 22:42:28;;;;;;;0.67;0.60;;;;;;;22.75;60.61;96383.53;10396816;28;20041;-29
2023/08/27 22:47:29;;;;;;;1.10;0.87;;;;;;;22.76;60.71;96367.38;10413090;28;20045;-29
2023/08/27 22:52:30;;;;;;;0.95;0.60;;;;;;;22.75;60.67;96365.66;10394646;28;20112;-28
2023/08/27 22:57:31;;;;;;;1.77;0.60;;;;;;;22.75;60.67;96377.59;10403316;28;20033;-29
2023/08/27 23:02:31;;;;;;;0.80;0.70;;;;;;;22.75;60.69;96372.50;10401047;28;20534;-29
2023/08/27 23:07:31;;;;;;;1.33;0.60;;;;;;;22.73;60.58;96372.50;10407449;28;20483;-29
2023/08/27 23:12:32;;;;;;;0.70;0.60;;;;;;;22.75;60.67;96357.19;10402276;28;20451;-29
2023/08/27 23:17:32;;;;;;;1.77;0.77;;;;;;;22.74;60.60;96358.88;10408188;28;20034;-29